createdAt,value
2022-11-10T00:01:09.079Z,101120.19
2022-11-10T00:03:56.053Z,101120.97
2022-11-10T00:06:44.882Z,101121.66
2022-11-10T00:09:31.314Z,101127.53
2022-11-10T00:12:20.777Z,101123.78
2022-11-10T00:15:26.386Z,101120.75
2022-11-10T00:18:14.011Z,101125.34
2022-11-10T00:21:05.249Z,101131.63
2022-11-10T00:23:52.167Z,101125.66
2022-11-10T00:26:38.639Z,101125.53
2022-11-10T00:29:25.506Z,101129.63
2022-11-10T00:32:11.873Z,101131.22
2022-11-10T00:34:58.722Z,101129.31
2022-11-10T00:37:45.036Z,101137.06
2022-11-10T00:40:32.836Z,101134.81
2022-11-10T00:43:22.530Z,101141.00
2022-11-10T00:46:13.656Z,101133.41
2022-11-10T00:49:00.137Z,101129.94
2022-11-10T00:51:48.080Z,101135.13
2022-11-10T00:54:34.669Z,101134.19
2022-11-10T00:57:22.512Z,101132.00
2022-11-10T01:00:10.219Z,101127.75
2022-11-10T01:02:57.066Z,101140.16
2022-11-10T01:05:44.957Z,101128.31
2022-11-10T01:08:32.169Z,101134.31
2022-11-10T01:11:22.539Z,101127.25
2022-11-10T01:14:10.360Z,101123.16
2022-11-10T01:16:56.592Z,101129.56
2022-11-10T01:19:43.458Z,101134.13
2022-11-10T01:22:30.610Z,101124.84
2022-11-10T01:25:17.881Z,101134.16
2022-11-10T01:28:04.739Z,101133.50
2022-11-10T01:30:58.819Z,101132.75
2022-11-10T01:33:46.057Z,101132.94
2022-11-10T01:36:32.850Z,101122.53
2022-11-10T01:39:19.621Z,101138.69
2022-11-10T01:42:06.727Z,101136.81
2022-11-10T01:45:23.660Z,101123.81
2022-11-10T01:48:16.269Z,101133.31
2022-11-10T01:51:26.070Z,101124.94
2022-11-10T01:54:37.670Z,101129.06
2022-11-10T01:57:24.072Z,101125.50
2022-11-10T02:00:13.000Z,101122.22
2022-11-10T02:03:24.726Z,101119.09
2022-11-10T02:06:14.316Z,101115.88
2022-11-10T02:09:00.753Z,101125.41
2022-11-10T02:11:49.958Z,101117.47
2022-11-10T02:14:37.683Z,101117.66
2022-11-10T02:17:24.649Z,101119.09
2022-11-10T02:20:13.477Z,101118.59
2022-11-10T02:23:11.080Z,101110.97
2022-11-10T02:25:58.937Z,101117.63
2022-11-10T02:28:45.894Z,101111.91
2022-11-10T02:31:32.183Z,101110.69
2022-11-10T02:34:18.949Z,101112.91
2022-11-10T02:37:05.801Z,101117.44
2022-11-10T02:39:53.660Z,101121.84
2022-11-10T02:42:40.188Z,101127.09
2022-11-10T02:45:28.160Z,101125.06
2022-11-10T02:48:15.941Z,101133.09
2022-11-10T02:51:02.670Z,101137.41
2022-11-10T02:53:50.521Z,101136.72
2022-11-10T02:56:38.540Z,101145.75
2022-11-10T02:59:24.900Z,101132.63
2022-11-10T03:02:12.839Z,101141.41
2022-11-10T03:04:59.678Z,101146.13
2022-11-10T03:07:46.506Z,101139.13
2022-11-10T03:10:33.489Z,101145.47
2022-11-10T03:13:20.396Z,101148.63
2022-11-10T03:16:07.511Z,101154.78
2022-11-10T03:18:54.489Z,101148.63
2022-11-10T03:21:41.201Z,101153.66
2022-11-10T03:24:29.549Z,101161.56
2022-11-10T03:27:16.094Z,101159.00
2022-11-10T03:30:03.481Z,101170.97
2022-11-10T03:32:50.080Z,101176.22
2022-11-10T03:35:37.340Z,101180.47
2022-11-10T03:38:23.749Z,101184.09
2022-11-10T03:41:19.747Z,101182.06
2022-11-10T03:44:07.061Z,101182.38
2022-11-10T03:46:54.341Z,101176.84
2022-11-10T03:49:40.580Z,101180.47
2022-11-10T03:52:27.477Z,101190.75
2022-11-10T03:55:17.164Z,101190.91
2022-11-10T03:58:04.670Z,101197.38
2022-11-10T04:00:53.555Z,101198.34
2022-11-10T04:03:40.468Z,101206.72
2022-11-10T04:06:45.593Z,101211.00
2022-11-10T04:09:33.188Z,101205.59
2022-11-10T04:12:38.053Z,101212.38
2022-11-10T04:15:43.305Z,101220.13
2022-11-10T04:18:30.085Z,101215.69
2022-11-10T04:21:17.456Z,101215.22
2022-11-10T04:24:03.870Z,101230.56
2022-11-10T04:26:51.029Z,101229.78
2022-11-10T04:29:37.516Z,101230.25
2022-11-10T04:32:24.198Z,101237.19
2022-11-10T04:35:10.599Z,101235.16
2022-11-10T04:37:57.766Z,101237.34
2022-11-10T04:40:44.159Z,101239.41
2022-11-10T04:43:31.764Z,101246.34
2022-11-10T04:46:34.264Z,101250.44
2022-11-10T04:49:21.253Z,101250.75
2022-11-10T04:52:07.828Z,101247.28
2022-11-10T04:54:54.570Z,101244.91
2022-11-10T04:57:43.289Z,101247.94
2022-11-10T05:00:29.945Z,101246.19
2022-11-10T05:03:16.524Z,101243.19
2022-11-10T05:06:03.399Z,101251.06
2022-11-10T11:23:24.382Z,101690.88
2022-11-10T11:26:30.391Z,101697.66
2022-11-10T11:29:39.668Z,101697.47
2022-11-10T11:32:54.559Z,101697.22
2022-11-10T11:35:47.130Z,101699.22
2022-11-10T11:38:55.420Z,101694.38
2022-11-10T11:41:42.660Z,101696.88
2022-11-10T11:44:57.759Z,101699.78
2022-11-10T11:48:16.263Z,101700.72
2022-11-10T11:51:22.965Z,101704.72
2022-11-10T11:54:58.499Z,101712.72
2022-11-10T11:57:55.467Z,101711.16
2022-11-10T12:01:32.730Z,101712.28
2022-11-10T12:04:38.768Z,101714.22
2022-11-10T12:07:43.362Z,101716.47
2022-11-10T12:10:43.123Z,101719.84
2022-11-10T12:13:37.215Z,101727.13
2022-11-10T12:16:30.115Z,101729.63
2022-11-10T12:19:29.813Z,101732.50
2022-11-10T12:23:04.510Z,101744.19
2022-11-10T12:26:22.169Z,101741.78
2022-11-10T12:29:33.016Z,101747.66
2022-11-10T12:32:32.616Z,101749.56
2022-11-10T12:35:34.559Z,101746.19
2022-11-10T12:38:27.176Z,101752.63
2022-11-10T12:41:19.380Z,101759.22
2022-11-10T12:44:17.706Z,101758.72
2022-11-10T12:47:12.446Z,101761.88
2022-11-10T12:50:16.875Z,101768.97
2022-11-10T12:53:19.115Z,101769.41
2022-11-10T12:56:45.850Z,101773.84
2022-11-10T12:59:34.611Z,101770.25
2022-11-10T13:02:40.696Z,101782.41
2022-11-10T13:05:41.180Z,101771.75
2022-11-10T13:08:47.399Z,101785.44
2022-11-10T13:11:36.889Z,101787.25
2022-11-10T13:14:30.262Z,101788.47
2022-11-10T13:17:26.977Z,101794.16
2022-11-10T13:20:50.594Z,101784.13
2022-11-10T13:23:38.261Z,101789.97
2022-11-10T13:26:39.997Z,101784.72
2022-11-10T13:29:49.000Z,101781.47
2022-11-10T13:32:36.610Z,101793.88
2022-11-10T13:35:29.830Z,101801.50
2022-11-10T13:38:37.220Z,101796.94
2022-11-10T13:41:26.973Z,101799.88
2022-11-10T13:44:29.610Z,101806.78
2022-11-10T13:47:40.665Z,101804.78
2022-11-10T13:51:03.900Z,101815.53
2022-11-10T13:54:25.901Z,101820.13
2022-11-10T13:57:35.199Z,101815.84
2022-11-10T14:00:29.374Z,101814.41
2022-11-10T14:03:47.821Z,101822.16
2022-11-10T14:06:37.422Z,101825.50
2022-11-10T14:09:33.740Z,101828.66
2022-11-10T14:12:34.005Z,101833.78
2022-11-10T14:15:29.174Z,101842.88
2022-11-10T14:18:39.961Z,101841.16
2022-11-10T14:21:56.858Z,101839.41
2022-11-10T14:25:10.199Z,101841.69
2022-11-10T14:27:58.442Z,101843.69
2022-11-10T14:30:52.793Z,101858.00
2022-11-10T14:33:39.148Z,101857.91
2022-11-10T14:36:25.995Z,101864.03
2022-11-10T14:39:16.955Z,101858.72
2022-11-10T14:42:05.998Z,101870.94
2022-11-10T14:45:22.463Z,101876.28
2022-11-10T14:48:19.167Z,101874.28
2022-11-10T14:51:11.973Z,101876.31
2022-11-10T14:53:58.852Z,101877.84
2022-11-10T14:56:45.246Z,101880.38
2022-11-10T14:59:33.265Z,101885.38
2022-11-10T15:02:19.990Z,101892.63
2022-11-10T15:05:14.578Z,101897.84
2022-11-10T15:08:03.416Z,101907.81
2022-11-10T15:10:53.452Z,101908.38
2022-11-10T15:13:40.320Z,101907.06
2022-11-10T15:16:36.856Z,101913.63
2022-11-10T15:19:32.987Z,101915.22
2022-11-10T15:22:41.477Z,101913.53
2022-11-10T15:25:38.098Z,101916.69
2022-11-10T15:28:34.452Z,101919.13
2022-11-10T15:31:33.303Z,101930.09
2022-11-10T15:34:41.937Z,101936.81
2022-11-10T15:37:31.816Z,101941.44
2022-11-10T15:40:28.565Z,101936.38
2022-11-10T15:43:24.823Z,101940.63
2022-11-10T15:46:25.179Z,101941.84
2022-11-10T15:49:33.305Z,101941.88
2022-11-10T15:52:22.894Z,101936.91
2022-11-10T15:55:23.045Z,101936.63
2022-11-10T15:58:22.836Z,101935.44
2022-11-10T16:01:12.947Z,101933.69
2022-11-10T16:04:00.024Z,101922.09
2022-11-10T16:06:46.964Z,101928.56
2022-11-10T16:09:35.448Z,101929.94
2022-11-10T16:12:23.537Z,101934.34
2022-11-10T16:15:19.866Z,101948.19
2022-11-10T16:18:17.329Z,101962.88
2022-11-10T16:21:05.135Z,101969.00
2022-11-10T16:23:52.936Z,101974.31
2022-11-10T16:26:40.949Z,101983.59
2022-11-10T16:29:27.576Z,101985.84
2022-11-10T16:32:15.666Z,101992.16
2022-11-10T16:35:04.214Z,101990.97
2022-11-10T16:37:51.434Z,102004.66
2022-11-10T16:40:38.241Z,102006.75
2022-11-10T16:43:26.518Z,102011.34
2022-11-10T16:46:22.814Z,102022.31
2022-11-10T16:49:36.423Z,102020.84
2022-11-10T16:52:22.963Z,102028.81
2022-11-10T16:55:14.120Z,102033.41
2022-11-10T16:58:01.121Z,102029.28
2022-11-10T17:00:49.064Z,102024.53
2022-11-10T17:03:46.935Z,102030.56
2022-11-10T17:06:34.585Z,102028.63
2022-11-10T17:09:28.099Z,102030.06
2022-11-10T17:12:15.180Z,102040.84
2022-11-10T17:15:01.808Z,102050.84
2022-11-10T17:17:54.657Z,102053.09
2022-11-10T17:20:43.377Z,102050.41
2022-11-10T17:23:30.400Z,102051.34
2022-11-10T17:26:19.848Z,102047.34
2022-11-10T17:29:06.889Z,102052.78
2022-11-10T17:31:54.428Z,102052.44
2022-11-10T17:34:41.263Z,102060.38
2022-11-10T17:37:27.618Z,102067.38
2022-11-10T17:40:18.975Z,102058.13
2022-11-10T17:43:05.551Z,102070.66
2022-11-10T17:45:52.362Z,102077.66
2022-11-10T17:48:38.880Z,102081.84
2022-11-10T17:51:26.750Z,102087.75
2022-11-10T17:54:15.790Z,102092.34
2022-11-10T17:57:04.822Z,102098.81
2022-11-10T17:59:51.549Z,102100.84
2022-11-10T18:02:39.382Z,102114.03
2022-11-10T18:05:27.079Z,102113.41
2022-11-10T18:08:15.208Z,102115.38
2022-11-10T18:11:01.815Z,102118.00
2022-11-10T18:13:48.589Z,102110.91
2022-11-10T18:16:34.992Z,102115.06
2022-11-10T18:19:21.755Z,102118.53
2022-11-10T18:22:08.721Z,102134.16
2022-11-10T18:24:55.303Z,102125.91
2022-11-10T18:27:43.362Z,102126.34
2022-11-10T18:30:34.866Z,102129.75
2022-11-10T18:33:23.634Z,102129.13
2022-11-10T18:36:11.893Z,102138.19
2022-11-10T18:38:58.330Z,102137.09
2022-11-10T18:41:52.551Z,102140.81
2022-11-10T18:44:39.768Z,102146.97
2022-11-10T18:47:26.559Z,102152.53
2022-11-10T18:50:13.262Z,102163.22
2022-11-10T18:53:04.197Z,102159.03
2022-11-10T18:55:55.357Z,102162.19
2022-11-10T18:58:42.623Z,102164.50
2022-11-10T19:01:29.652Z,102158.66
2022-11-10T19:04:17.869Z,102162.66
2022-11-10T19:07:04.691Z,102170.53
2022-11-10T19:09:53.169Z,102166.44
2022-11-10T19:12:39.751Z,102159.47
2022-11-10T19:15:27.628Z,102163.09
2022-11-10T19:18:14.502Z,102163.06
2022-11-10T19:21:07.838Z,102178.31
2022-11-10T19:23:56.679Z,102180.44
2022-11-10T19:26:43.677Z,102185.97
2022-11-10T19:29:30.520Z,102194.53
2022-11-10T19:32:22.131Z,102194.16
2022-11-10T19:35:13.827Z,102198.59
2022-11-10T19:38:00.758Z,102206.63
2022-11-10T19:40:47.467Z,102207.84
2022-11-10T19:43:34.810Z,102210.72
2022-11-10T19:46:28.047Z,102215.16
2022-11-10T19:49:15.040Z,102218.34
2022-11-10T19:52:01.776Z,102223.91
2022-11-10T19:54:48.510Z,102215.72
2022-11-10T19:57:35.994Z,102215.41
2022-11-10T20:00:24.646Z,102223.22
2022-11-10T20:03:11.787Z,102211.47
2022-11-10T20:06:01.137Z,102222.03
2022-11-10T20:08:49.365Z,102228.88
2022-11-10T20:11:36.104Z,102232.88
2022-11-10T20:14:22.564Z,102244.81
2022-11-10T20:17:09.534Z,102240.25
2022-11-10T20:19:55.847Z,102250.63
2022-11-10T20:22:42.614Z,102249.41
2022-11-10T20:25:30.074Z,102264.94
2022-11-10T20:28:17.105Z,102268.03
2022-11-10T20:31:06.334Z,102270.00
2022-11-10T20:33:55.792Z,102274.41
2022-11-10T20:36:42.595Z,102286.84
2022-11-10T20:39:29.586Z,102284.38
2022-11-10T20:42:16.294Z,102296.19
2022-11-10T20:45:03.107Z,102294.50
2022-11-10T20:47:49.744Z,102296.50
2022-11-10T20:50:40.016Z,102298.88
2022-11-10T20:53:29.306Z,102294.81
2022-11-10T20:56:16.328Z,102294.41
2022-11-10T20:59:03.125Z,102298.66
2022-11-10T21:01:50.084Z,102296.38
2022-11-10T21:04:41.771Z,102297.34
2022-11-10T21:07:30.035Z,102295.06
2022-11-10T21:10:16.621Z,102296.22
2022-11-10T21:13:03.347Z,102286.38
2022-11-10T21:16:01.413Z,102288.19
2022-11-10T21:18:48.109Z,102285.41
2022-11-10T21:21:34.953Z,102277.06
2022-11-10T21:24:23.133Z,102284.03
2022-11-10T21:27:11.491Z,102278.22
2022-11-10T21:29:59.521Z,102277.78
2022-11-10T21:32:46.054Z,102278.53
2022-11-10T21:35:38.175Z,102274.81
2022-11-10T21:38:25.385Z,102280.09
2022-11-10T21:41:12.472Z,102279.38
2022-11-10T21:43:59.208Z,102281.56
2022-11-10T21:46:47.342Z,102277.00
2022-11-10T21:49:34.434Z,102276.63
2022-11-10T21:52:21.143Z,102278.66
2022-11-10T21:55:08.622Z,102285.00
2022-11-10T21:57:58.367Z,102279.00
2022-11-10T22:00:45.192Z,102284.97
2022-11-10T22:03:33.786Z,102289.41
2022-11-10T22:06:21.609Z,102288.66
2022-11-10T22:09:09.833Z,102290.81
2022-11-10T22:12:14.889Z,102295.91
2022-11-10T22:15:21.030Z,102305.66
2022-11-10T22:18:33.834Z,102296.38
2022-11-10T22:21:21.939Z,102306.53
2022-11-10T22:24:23.846Z,102314.09
2022-11-10T22:27:10.657Z,102312.28
2022-11-10T22:29:57.127Z,102317.78
2022-11-10T22:32:44.073Z,102312.09
2022-11-10T22:35:46.075Z,102316.69
2022-11-10T22:38:36.282Z,102325.91
2022-11-10T22:41:41.375Z,102320.34
2022-11-10T22:44:28.634Z,102315.03
2022-11-10T22:47:17.006Z,102322.84
2022-11-10T22:50:04.306Z,102318.91
2022-11-10T22:52:51.016Z,102322.31
2022-11-10T22:55:37.748Z,102327.09
2022-11-10T22:58:24.385Z,102325.31
2022-11-10T23:01:12.845Z,102323.44
2022-11-10T23:04:00.687Z,102315.94
2022-11-10T23:06:48.607Z,102326.78
2022-11-10T23:09:35.577Z,102318.00
2022-11-10T23:12:22.665Z,102316.84
2022-11-10T23:15:09.909Z,102319.53
2022-11-10T23:17:59.940Z,102322.50
2022-11-10T23:20:49.246Z,102316.38
2022-11-10T23:23:37.915Z,102316.06
2022-11-10T23:26:27.700Z,102314.81
2022-11-10T23:29:15.530Z,102314.56
2022-11-10T23:32:02.781Z,102319.53
2022-11-10T23:34:50.000Z,102311.66
2022-11-10T23:37:36.548Z,102308.53
2022-11-10T23:40:24.234Z,102323.41
2022-11-10T23:43:10.843Z,102322.66
2022-11-10T23:46:07.281Z,102327.63
2022-11-10T23:48:54.925Z,102338.38
2022-11-10T23:51:43.142Z,102340.41
2022-11-10T23:54:29.616Z,102331.41
2022-11-10T23:57:17.377Z,102342.81
